sensor_id;sensor_type;location;lat;lon;timestamp;pressure;altitude;pressure_sealevel;temperature;humidity
65054;BME280;51639;47.828;35.038;2022-07-29T00:11:47;100469.03;;;22.28;85.57
65054;BME280;51639;47.828;35.038;2022-07-29T00:26:49;100455.44;;;22.25;86.52
65054;BME280;51639;47.828;35.038;2022-07-29T00:41:51;100465.06;;;22.03;88.30
65054;BME280;51639;47.828;35.038;2022-07-29T00:57:02;100462.59;;;21.85;89.22
65054;BME280;51639;47.828;35.038;2022-07-29T01:12:07;100452.69;;;21.73;87.74
65054;BME280;51639;47.828;35.038;2022-07-29T01:27:41;100452.56;;;21.62;87.21
65054;BME280;51639;47.828;35.038;2022-07-29T01:42:55;100473.00;;;21.50;85.27
65054;BME280;51639;47.828;35.038;2022-07-29T01:58:00;100482.31;;;21.52;84.04
65054;BME280;51639;47.828;35.038;2022-07-29T02:13:03;100482.28;;;21.47;82.90
65054;BME280;51639;47.828;35.038;2022-07-29T02:28:06;100490.97;;;21.39;83.17
65054;BME280;51639;47.828;35.038;2022-07-29T02:43:09;100507.13;;;21.47;82.53
65054;BME280;51639;47.828;35.038;2022-07-29T02:58:42;100498.00;;;21.61;81.13
65054;BME280;51639;47.828;35.038;2022-07-29T03:13:47;100497.13;;;21.75;80.75
65054;BME280;51639;47.828;35.038;2022-07-29T03:28:50;100505.56;;;21.86;79.70
65054;BME280;51639;47.828;35.038;2022-07-29T03:43:53;100501.63;;;21.93;79.11
65054;BME280;51639;47.828;35.038;2022-07-29T03:58:55;100513.28;;;22.02;78.62
65054;BME280;51639;47.828;35.038;2022-07-29T04:13:58;100522.78;;;22.22;77.91
65054;BME280;51639;47.828;35.038;2022-07-29T04:29:00;100513.97;;;22.49;76.72
65054;BME280;51639;47.828;35.038;2022-07-29T04:44:02;100520.84;;;22.59;75.22
65054;BME280;51639;47.828;35.038;2022-07-29T04:59:09;100520.00;;;22.48;74.81
65054;BME280;51639;47.828;35.038;2022-07-29T05:14:13;100509.50;;;22.57;74.48
65054;BME280;51639;47.828;35.038;2022-07-29T05:29:16;100523.84;;;22.87;73.74
65054;BME280;51639;47.828;35.038;2022-07-29T05:44:41;100523.47;;;23.54;70.24
65054;BME280;51639;47.828;35.038;2022-07-29T05:59:55;100528.97;;;24.35;66.35
65054;BME280;51639;47.828;35.038;2022-07-29T06:15:11;100533.91;;;25.37;64.15
65054;BME280;51639;47.828;35.038;2022-07-29T06:30:13;100528.09;;;25.46;63.13
65054;BME280;51639;47.828;35.038;2022-07-29T06:45:15;100510.38;;;26.43;57.54
65054;BME280;51639;47.828;35.038;2022-07-29T07:00:17;100513.63;;;27.44;53.13
65054;BME280;51639;47.828;35.038;2022-07-29T07:15:20;100516.94;;;27.86;51.07
65054;BME280;51639;47.828;35.038;2022-07-29T07:30:39;100515.84;;;28.27;50.39
65054;BME280;51639;47.828;35.038;2022-07-29T07:45:42;100515.34;;;29.00;49.06
65054;BME280;51639;47.828;35.038;2022-07-29T08:00:44;100510.81;;;28.83;49.07
65054;BME280;51639;47.828;35.038;2022-07-29T08:15:56;100516.97;;;29.82;45.87
65054;BME280;51639;47.828;35.038;2022-07-29T08:31:14;100508.47;;;30.22;45.93
65054;BME280;51639;47.828;35.038;2022-07-29T08:46:19;100510.34;;;30.97;43.06
65054;BME280;51639;47.828;35.038;2022-07-29T09:01:24;100505.94;;;31.37;41.51
65054;BME280;51639;47.828;35.038;2022-07-29T09:16:53;100494.91;;;31.83;39.94
65054;BME280;51639;47.828;35.038;2022-07-29T09:31:59;100491.59;;;32.23;38.81
65054;BME280;51639;47.828;35.038;2022-07-29T09:47:06;100489.25;;;33.20;36.41
65054;BME280;51639;47.828;35.038;2022-07-29T10:02:13;100490.56;;;33.67;34.90
65054;BME280;51639;47.828;35.038;2022-07-29T10:34:16;100466.38;;;33.96;34.02
65054;BME280;51639;47.828;35.038;2022-07-29T10:49:22;100461.22;;;34.35;33.24
65054;BME280;51639;47.828;35.038;2022-07-29T11:19:50;100448.25;;;34.07;32.91
65054;BME280;51639;47.828;35.038;2022-07-29T11:35:25;100449.63;;;33.33;33.18
65054;BME280;51639;47.828;35.038;2022-07-29T11:50:43;100438.31;;;31.56;34.44
65054;BME280;51639;47.828;35.038;2022-07-29T12:05:45;100438.34;;;31.20;34.90
65054;BME280;51639;47.828;35.038;2022-07-29T12:21:00;100429.41;;;30.85;34.54
65054;BME280;51639;47.828;35.038;2022-07-29T12:36:05;100417.81;;;30.32;35.17
65054;BME280;51639;47.828;35.038;2022-07-29T12:51:12;100420.50;;;29.96;35.14
65054;BME280;51639;47.828;35.038;2022-07-29T13:06:36;100414.47;;;29.71;34.73
65054;BME280;51639;47.828;35.038;2022-07-29T13:37:30;100412.41;;;29.38;34.55
65054;BME280;51639;47.828;35.038;2022-07-29T13:52:36;100402.72;;;29.05;34.45
65054;BME280;51639;47.828;35.038;2022-07-29T14:07:39;100410.88;;;28.76;35.02
65054;BME280;51639;47.828;35.038;2022-07-29T14:22:44;100391.75;;;28.67;35.16
65054;BME280;51639;47.828;35.038;2022-07-29T14:37:47;100388.84;;;28.46;35.43
65054;BME280;51639;47.828;35.038;2022-07-29T14:52:49;100386.16;;;28.28;35.59
65054;BME280;51639;47.828;35.038;2022-07-29T15:07:51;100386.78;;;28.21;35.63
65054;BME280;51639;47.828;35.038;2022-07-29T15:22:56;100383.88;;;27.94;35.99
65054;BME280;51639;47.828;35.038;2022-07-29T15:37:59;100386.66;;;27.81;36.24
65054;BME280;51639;47.828;35.038;2022-07-29T15:53:01;100393.03;;;27.63;37.27
65054;BME280;51639;47.828;35.038;2022-07-29T16:08:03;100409.59;;;27.36;37.51
65054;BME280;51639;47.828;35.038;2022-07-29T16:23:06;100416.00;;;27.12;37.65
65054;BME280;51639;47.828;35.038;2022-07-29T16:38:10;100421.41;;;26.80;38.30
65054;BME280;51639;47.828;35.038;2022-07-29T16:53:12;100428.59;;;26.46;39.07
65054;BME280;51639;47.828;35.038;2022-07-29T17:08:14;100433.91;;;26.14;40.10
65054;BME280;51639;47.828;35.038;2022-07-29T17:23:16;100444.78;;;25.76;40.66
65054;BME280;51639;47.828;35.038;2022-07-29T17:38:18;100461.16;;;25.39;41.72
65054;BME280;51639;47.828;35.038;2022-07-29T17:53:20;100471.13;;;25.12;43.16
65054;BME280;51639;47.828;35.038;2022-07-29T18:08:22;100492.63;;;24.95;43.76
65054;BME280;51639;47.828;35.038;2022-07-29T18:23:24;100498.97;;;24.78;44.56
65054;BME280;51639;47.828;35.038;2022-07-29T18:38:26;100503.53;;;24.48;46.63
65054;BME280;51639;47.828;35.038;2022-07-29T18:53:28;100514.81;;;24.22;46.28
65054;BME280;51639;47.828;35.038;2022-07-29T19:08:30;100518.09;;;24.04;47.08
65054;BME280;51639;47.828;35.038;2022-07-29T19:23:32;100511.47;;;23.79;47.24
65054;BME280;51639;47.828;35.038;2022-07-29T19:38:54;100510.41;;;23.60;48.54
65054;BME280;51639;47.828;35.038;2022-07-29T19:53:56;100510.28;;;23.37;48.81
65054;BME280;51639;47.828;35.038;2022-07-29T20:08:58;100491.03;;;23.17;49.87
65054;BME280;51639;47.828;35.038;2022-07-29T20:24:01;100493.47;;;22.98;50.26
65054;BME280;51639;47.828;35.038;2022-07-29T20:39:05;100506.38;;;22.75;51.20
65054;BME280;51639;47.828;35.038;2022-07-29T20:54:07;100507.28;;;22.61;51.80
65054;BME280;51639;47.828;35.038;2022-07-29T21:09:09;100504.63;;;22.41;52.86
65054;BME280;51639;47.828;35.038;2022-07-29T21:24:12;100513.56;;;22.04;54.15
65054;BME280;51639;47.828;35.038;2022-07-29T21:39:14;100507.34;;;21.89;54.91
65054;BME280;51639;47.828;35.038;2022-07-29T21:54:16;100497.81;;;21.90;54.67
65054;BME280;51639;47.828;35.038;2022-07-29T22:09:18;100499.97;;;21.81;55.21
65054;BME280;51639;47.828;35.038;2022-07-29T22:24:20;100507.13;;;21.67;55.94
65054;BME280;51639;47.828;35.038;2022-07-29T22:39:22;100513.13;;;21.65;56.48
65054;BME280;51639;47.828;35.038;2022-07-29T22:54:24;100496.50;;;21.39;57.25
65054;BME280;51639;47.828;35.038;2022-07-29T23:09:26;100488.59;;;21.32;57.63
65054;BME280;51639;47.828;35.038;2022-07-29T23:24:29;100490.59;;;21.32;57.10
65054;BME280;51639;47.828;35.038;2022-07-29T23:39:30;100491.03;;;21.25;57.10
65054;BME280;51639;47.828;35.038;2022-07-29T23:54:32;100494.66;;;21.16;58.16
